Time,TemperatureF,DewpointF,PressureIn,WindDirection,WindDirectionDegrees,WindSpeedMPH,WindSpeedGustMPH,Humidity,HourlyPrecipIn,Conditions,Clouds,dailyrainin,SoftwareType,DateUTC
2013-08-14 00:00:00,55.3,51.0,30.08,WNW,288,0.0,5.0,84,0.00,,,0.01,weatherlink.com 1.10,2013-08-14 04:00:00,
2013-08-14 00:15:00,55.2,51.0,30.09,WNW,301,3.0,4.0,85,0.00,,,0.01,weatherlink.com 1.10,2013-08-14 04:15:00,
2013-08-14 00:30:00,55.1,51.0,30.09,NNW,341,1.0,3.0,86,0.00,,,0.00,weatherlink.com 1.10,2013-08-14 04:30:00,
2013-08-14 00:45:00,54.8,51.0,30.09,North,5,0.0,2.0,86,0.00,,,0.00,weatherlink.com 1.10,2013-08-14 04:45:00,
2013-08-14 01:00:00,54.4,51.0,30.09,NNE,24,0.0,3.0,87,0.00,,,0.00,weatherlink.com 1.10,2013-08-14 05:00:00,
2013-08-14 01:15:00,54.2,50.0,30.09,NE,39,2.0,6.0,86,0.00,,,0.00,weatherlink.com 1.10,2013-08-14 05:15:00,
2013-08-14 01:30:00,54.0,50.0,30.09,WNW,299,0.0,3.0,86,0.00,,,0.00,weatherlink.com 1.10,2013-08-14 05:30:00,
2013-08-14 01:45:00,53.5,50.0,30.10,WNW,298,1.0,3.0,88,0.00,,,0.00,weatherlink.com 1.10,2013-08-14 05:45:00,
2013-08-14 02:00:00,53.1,50.0,30.10,West,275,1.0,3.0,88,0.00,,,0.00,weatherlink.com 1.10,2013-08-14 06:00:00,
2013-08-14 02:15:00,52.8,49.0,30.10,West,260,2.0,3.0,88,0.00,,,0.00,weatherlink.com 1.10,2013-08-14 06:15:00,
2013-08-14 02:30:00,52.5,49.0,30.10,NW,310,0.0,3.0,89,0.00,,,0.00,weatherlink.com 1.10,2013-08-14 06:30:00,
2013-08-14 02:45:00,52.5,49.0,30.10,NE,49,0.0,2.0,89,0.00,,,0.00,weatherlink.com 1.10,2013-08-14 06:45:00,
2013-08-14 03:00:00,52.5,49.0,30.10,NE,53,1.0,4.0,89,0.00,,,0.00,weatherlink.com 1.10,2013-08-14 07:00:00,
2013-08-14 03:15:00,52.4,49.0,30.10,North,360,1.0,3.0,89,0.00,,,0.00,weatherlink.com 1.10,2013-08-14 07:15:00,
2013-08-14 03:30:00,52.1,49.0,30.11,NW,320,1.0,2.0,89,0.00,,,0.00,weatherlink.com 1.10,2013-08-14 07:30:00,
2013-08-14 03:45:00,51.7,49.0,30.11,NNE,30,3.0,3.0,90,0.00,,,0.00,weatherlink.com 1.10,2013-08-14 07:45:00,
2013-08-14 04:00:00,51.6,49.0,30.11,NNW,346,1.0,4.0,90,0.00,,,0.00,weatherlink.com 1.10,2013-08-14 08:00:00,
2013-08-14 04:15:00,51.4,49.0,30.11,NE,53,2.0,5.0,90,0.00,,,0.00,weatherlink.com 1.10,2013-08-14 08:15:00,
2013-08-14 04:30:00,51.2,48.0,30.11,NW,314,0.0,3.0,89,0.00,,,0.00,weatherlink.com 1.10,2013-08-14 08:30:00,
2013-08-14 04:45:00,50.8,48.0,30.11,North,355,1.0,4.0,90,0.00,,,0.00,weatherlink.com 1.10,2013-08-14 08:45:00,
2013-08-14 05:00:00,50.7,48.0,30.11,NNE,32,0.0,4.0,90,0.00,,,0.00,weatherlink.com 1.10,2013-08-14 09:00:00,
2013-08-14 05:15:00,50.4,48.0,30.12,NNE,13,0.0,3.0,91,0.00,,,0.00,weatherlink.com 1.10,2013-08-14 09:15:00,
2013-08-14 05:30:00,50.2,47.0,30.12,WNW,297,0.0,3.0,90,0.00,,,0.00,weatherlink.com 1.10,2013-08-14 09:30:00,
2013-08-14 05:45:00,49.8,47.0,30.13,NE,55,1.0,5.0,91,0.00,,,0.00,weatherlink.com 1.10,2013-08-14 09:45:00,
2013-08-14 06:00:00,49.6,47.0,30.13,NW,323,1.0,4.0,92,0.00,,,0.00,weatherlink.com 1.10,2013-08-14 10:00:00,
2013-08-14 06:15:00,49.5,47.0,30.13,NW,325,3.0,4.0,92,0.00,,,0.00,weatherlink.com 1.10,2013-08-14 10:15:00,
2013-08-14 06:30:00,49.3,47.0,30.14,NNW,342,0.0,4.0,92,0.00,,,0.00,weatherlink.com 1.10,2013-08-14 10:30:00,
2013-08-14 06:45:00,49.3,47.0,30.15,NE,46,2.0,5.0,92,0.00,,,0.00,weatherlink.com 1.10,2013-08-14 10:45:00,
2013-08-14 07:00:00,49.1,47.0,30.16,NE,44,0.0,4.0,92,0.00,,,0.00,weatherlink.com 1.10,2013-08-14 11:00:00,
2013-08-14 07:16:00,49.1,47.0,30.16,NNE,32,0.0,3.0,92,0.00,,,0.00,weatherlink.com 1.10,2013-08-14 11:16:00,
2013-08-14 07:31:00,49.2,47.0,30.16,NE,53,1.0,4.0,92,0.00,,,0.00,weatherlink.com 1.10,2013-08-14 11:31:00,
2013-08-14 07:46:00,49.3,47.0,30.17,NNW,340,2.0,5.0,91,0.00,,,0.00,weatherlink.com 1.10,2013-08-14 11:46:00,
2013-08-14 08:01:00,49.5,47.0,30.17,NNW,337,2.0,4.0,90,0.00,,,0.00,weatherlink.com 1.10,2013-08-14 12:01:00,
2013-08-14 08:16:00,50.1,47.0,30.17,NNW,345,2.0,4.0,90,0.00,,,0.00,weatherlink.com 1.10,2013-08-14 12:16:00,
2013-08-14 08:31:00,51.0,48.0,30.18,NE,52,0.0,7.0,90,0.00,,,0.00,weatherlink.com 1.10,2013-08-14 12:31:00,
2013-08-14 08:46:00,51.7,49.0,30.18,NE,44,3.0,3.0,90,0.00,,,0.00,weatherlink.com 1.10,2013-08-14 12:46:00,
2013-08-14 09:01:00,52.6,49.0,30.18,ENE,67,1.0,4.0,88,0.00,,,0.00,weatherlink.com 1.10,2013-08-14 13:01:00,
2013-08-14 09:16:00,53.8,50.0,30.18,NNE,20,2.0,6.0,86,0.00,,,0.00,weatherlink.com 1.10,2013-08-14 13:16:00,
2013-08-14 09:31:00,54.8,50.0,30.19,NE,55,0.0,4.0,85,0.00,,,0.00,weatherlink.com 1.10,2013-08-14 13:31:00,
2013-08-14 09:46:00,56.0,51.0,30.19,North,355,1.0,5.0,83,0.00,,,0.00,weatherlink.com 1.10,2013-08-14 13:46:00,
2013-08-14 10:01:00,56.8,51.0,30.19,NNE,15,3.0,7.0,81,0.00,,,0.00,weatherlink.com 1.10,2013-08-14 14:01:00,
2013-08-14 10:16:00,57.4,52.0,30.19,NNE,29,3.0,7.0,81,0.00,,,0.00,weatherlink.com 1.10,2013-08-14 14:16:00,
2013-08-14 10:31:00,58.2,52.0,30.19,NNE,24,1.0,4.0,79,0.00,,,0.00,weatherlink.com 1.10,2013-08-14 14:31:00,
2013-08-14 10:46:00,59.5,52.0,30.19,NW,311,1.0,7.0,75,0.00,,,0.00,weatherlink.com 1.10,2013-08-14 14:46:00,
2013-08-14 11:01:00,60.2,51.0,30.19,NE,46,4.0,8.0,71,0.00,,,0.00,weatherlink.com 1.10,2013-08-14 15:01:00,
2013-08-14 11:16:00,60.9,51.0,30.20,NNE,28,2.0,8.0,71,0.00,,,0.00,weatherlink.com 1.10,2013-08-14 15:16:00,
2013-08-14 11:31:00,61.8,51.0,30.19,NE,53,5.0,7.0,68,0.00,,,0.00,weatherlink.com 1.10,2013-08-14 15:31:00,
2013-08-14 11:46:00,62.5,52.0,30.19,NNE,33,4.0,8.0,68,0.00,,,0.00,weatherlink.com 1.10,2013-08-14 15:46:00,
2013-08-14 12:01:00,63.5,51.0,30.19,ENE,58,2.0,7.0,64,0.00,,,0.00,weatherlink.com 1.10,2013-08-14 16:01:00,
2013-08-14 12:16:00,65.1,52.0,30.19,NNE,24,2.0,6.0,63,0.00,,,0.00,weatherlink.com 1.10,2013-08-14 16:16:00,
2013-08-14 12:31:00,64.5,51.0,30.19,NNE,26,0.0,7.0,62,0.00,,,0.00,weatherlink.com 1.10,2013-08-14 16:31:00,
2013-08-14 12:46:00,65.2,50.0,30.19,West,279,4.0,7.0,59,0.00,,,0.00,weatherlink.com 1.10,2013-08-14 16:46:00,
2013-08-14 13:16:00,66.8,51.0,30.18,NNW,340,1.0,7.0,58,0.00,,,0.00,weatherlink.com 1.10,2013-08-14 17:16:00,
2013-08-14 13:31:00,66.1,51.0,30.18,WSW,257,2.0,8.0,59,0.00,,,0.00,weatherlink.com 1.10,2013-08-14 17:31:00,
2013-08-14 13:46:00,67.2,51.0,30.18,West,280,3.0,6.0,57,0.00,,,0.00,weatherlink.com 1.10,2013-08-14 17:46:00,
2013-08-14 14:02:00,66.7,54.0,30.18,NNE,30,6.0,6.0,63,0.00,,,0.00,weatherlink.com 1.10,2013-08-14 18:02:00,
2013-08-14 14:32:00,67.9,54.0,30.17,NNW,328,2.0,8.0,61,0.00,,,0.00,weatherlink.com 1.10,2013-08-14 18:32:00,
2013-08-14 15:02:00,67.7,54.0,30.17,East,89,0.0,4.0,61,0.00,,,0.00,weatherlink.com 1.10,2013-08-14 19:02:00,
2013-08-14 15:17:00,68.2,51.0,30.18,North,5,2.0,7.0,55,0.00,,,0.00,weatherlink.com 1.10,2013-08-14 19:17:00,
2013-08-14 16:02:00,70.3,52.0,30.16,WNW,286,0.0,7.0,53,0.00,,,0.00,weatherlink.com 1.10,2013-08-14 20:02:00,
2013-08-14 16:16:00,71.7,54.0,30.16,WNW,302,1.0,1.0,54,0.00,,,0.00,weatherlink.com 1.10,2013-08-14 20:16:00,
2013-08-14 17:01:00,68.8,52.0,30.15,NNE,30,1.0,3.0,56,0.00,,,0.00,weatherlink.com 1.10,2013-08-14 21:01:00,
2013-08-14 17:16:00,69.3,50.0,30.16,NNW,332,2.0,5.0,51,0.00,,,0.00,weatherlink.com 1.10,2013-08-14 21:16:00,
2013-08-14 17:31:00,69.6,51.0,30.16,WNW,303,3.0,8.0,52,0.00,,,0.00,weatherlink.com 1.10,2013-08-14 21:31:00,
2013-08-14 17:46:00,69.2,50.0,30.16,WNW,300,1.0,5.0,51,0.00,,,0.00,weatherlink.com 1.10,2013-08-14 21:46:00,
2013-08-14 18:16:00,67.7,51.0,30.16,NE,48,1.0,4.0,56,0.00,,,0.00,weatherlink.com 1.10,2013-08-14 22:16:00,
2013-08-14 18:31:00,67.2,55.0,30.15,WNW,294,2.0,3.0,65,0.00,,,0.00,weatherlink.com 1.10,2013-08-14 22:31:00,
2013-08-14 18:46:00,66.8,51.0,30.15,NW,317,0.0,5.0,57,0.00,,,0.00,weatherlink.com 1.10,2013-08-14 22:46:00,
2013-08-14 19:01:00,66.7,53.0,30.14,NW,307,1.0,4.0,61,0.00,,,0.00,weatherlink.com 1.10,2013-08-14 23:01:00,
2013-08-14 19:16:00,66.8,52.0,30.14,NNE,29,2.0,4.0,60,0.00,,,0.00,weatherlink.com 1.10,2013-08-14 23:16:00,
2013-08-14 19:31:00,66.5,52.0,30.14,West,261,3.0,4.0,61,0.00,,,0.00,weatherlink.com 1.10,2013-08-14 23:31:00,
2013-08-14 19:46:00,65.5,52.0,30.14,NW,326,0.0,3.0,62,0.00,,,0.00,weatherlink.com 1.10,2013-08-14 23:46:00,
2013-08-14 20:01:00,64.7,53.0,30.14,WNW,288,0.0,2.0,66,0.00,,,0.00,weatherlink.com 1.10,2013-08-15 00:01:00,
2013-08-14 20:16:00,63.3,53.0,30.14,West,273,0.0,1.0,69,0.00,,,0.00,weatherlink.com 1.10,2013-08-15 00:16:00,
2013-08-14 20:31:00,62.0,54.0,30.14,West,273,0.0,0.0,75,0.00,,,0.00,weatherlink.com 1.10,2013-08-15 00:31:00,
2013-08-14 20:46:00,60.8,53.0,30.15,West,273,0.0,0.0,75,0.00,,,0.00,weatherlink.com 1.10,2013-08-15 00:46:00,
2013-08-14 21:01:00,59.5,53.0,30.15,West,273,0.0,0.0,78,0.00,,,0.00,weatherlink.com 1.10,2013-08-15 01:01:00,
2013-08-14 21:16:00,59.0,54.0,30.15,West,273,0.0,0.0,84,0.00,,,0.00,weatherlink.com 1.10,2013-08-15 01:16:00,
2013-08-14 21:31:00,58.4,53.0,30.15,West,273,0.0,0.0,83,0.00,,,0.00,weatherlink.com 1.10,2013-08-15 01:31:00,
2013-08-14 21:46:00,58.3,55.0,30.16,West,273,0.0,0.0,87,0.00,,,0.00,weatherlink.com 1.10,2013-08-15 01:46:00,
2013-08-14 22:01:00,57.9,54.0,30.16,West,273,0.0,0.0,88,0.00,,,0.00,weatherlink.com 1.10,2013-08-15 02:01:00,
2013-08-14 22:16:00,57.2,53.0,30.16,WNW,285,2.0,4.0,85,0.00,,,0.00,weatherlink.com 1.10,2013-08-15 02:16:00,
2013-08-14 22:31:00,58.5,53.0,30.17,WSW,256,2.0,6.0,82,0.00,,,0.00,weatherlink.com 1.10,2013-08-15 02:31:00,
2013-08-14 22:46:00,59.2,53.0,30.16,WNW,296,1.0,5.0,79,0.00,,,0.00,weatherlink.com 1.10,2013-08-15 02:46:00,
2013-08-14 23:01:00,59.0,53.0,30.17,NW,304,1.0,6.0,79,0.00,,,0.00,weatherlink.com 1.10,2013-08-15 03:01:00,
2013-08-14 23:16:00,58.5,52.0,30.17,NNW,346,1.0,5.0,80,0.00,,,0.00,weatherlink.com 1.10,2013-08-15 03:16:00,
2013-08-14 23:31:00,58.0,52.0,30.17,NNW,339,0.0,5.0,80,0.00,,,0.00,weatherlink.com 1.10,2013-08-15 03:31:00,
2013-08-14 23:46:00,57.6,52.0,30.17,NNW,327,3.0,5.0,81,0.00,,,0.00,weatherlink.com 1.10,2013-08-15 03:46:00,